createdAt,value
2018-11-06T07:37:27.096Z,9.97
2018-11-06T07:37:27.146Z,5.78
2018-11-06T07:37:27.200Z,6
2018-11-06T07:37:27.301Z,6.55
2018-11-06T07:37:27.365Z,5.97
2018-11-06T07:37:27.424Z,6.84
2018-11-06T07:37:27.503Z,6.93
2018-11-06T07:37:27.602Z,4.61
2018-11-06T07:37:27.654Z,6.68
2018-11-06T07:37:27.702Z,6.68
2018-11-06T07:37:27.779Z,5.28
2018-11-06T07:37:27.872Z,5.84
2018-11-06T07:37:27.915Z,4.84
2018-11-06T07:37:28.011Z,4.92
2018-11-06T07:37:28.078Z,4.3
2018-11-06T07:37:28.195Z,3.72
2018-11-06T07:37:28.225Z,4.88
2018-11-06T07:37:28.316Z,4.59
2018-11-06T07:37:28.338Z,4.59
2018-11-06T07:37:28.433Z,7.07
2018-11-06T07:37:28.507Z,6.62
2018-11-06T07:37:28.553Z,5.4
2018-11-06T07:37:28.627Z,4.6
2018-11-06T07:37:28.671Z,6.08
2018-11-06T07:37:28.741Z,5.41
2018-11-06T07:37:28.799Z,3.91
2018-11-06T07:37:28.869Z,5.24
2018-11-06T07:37:29.005Z,5.34
2018-11-06T07:37:29.141Z,5.34
2018-11-06T07:37:29.237Z,5.72
2018-11-06T07:37:29.308Z,6.08
2018-11-06T07:37:29.398Z,4.83
2018-11-06T07:37:29.460Z,5.77
2018-11-06T07:37:29.523Z,5.52
2018-11-06T07:37:29.579Z,6.75
2018-11-06T07:37:29.660Z,4.93
2018-11-06T07:37:29.757Z,5.78
2018-11-06T07:37:29.816Z,5.6
2018-11-06T07:37:29.889Z,5.6
2018-11-06T07:37:29.940Z,7.02
2018-11-06T07:37:30.063Z,7.68
2018-11-06T07:37:30.120Z,6.08
2018-11-06T07:37:30.179Z,6.22
2018-11-06T07:37:30.289Z,4.96
2018-11-06T07:37:30.315Z,5.75
2018-11-06T07:37:30.396Z,5.02
2018-11-06T07:37:30.464Z,5.66
2018-11-06T07:37:30.517Z,7.82
2018-11-06T07:37:30.605Z,7.82
2018-11-06T07:37:30.672Z,5.11
2018-11-06T07:37:30.740Z,5.3
2018-11-06T07:37:30.837Z,5.51
2018-11-06T07:37:30.907Z,5.72
2018-11-06T07:37:30.982Z,4.49
2018-11-06T07:37:31.091Z,5.7
2018-11-06T07:37:31.144Z,5.75
2018-11-06T07:37:31.230Z,14.64
2018-11-06T07:37:31.278Z,16.39
2018-11-06T07:37:31.410Z,16.39
2018-11-06T07:37:31.436Z,5.39
2018-11-06T07:37:31.500Z,6.06
2018-11-06T07:37:31.528Z,5.26
2018-11-06T07:37:31.697Z,5.69
2018-11-06T07:37:31.814Z,5.09
2018-11-06T07:37:31.897Z,3.86
2018-11-06T07:37:31.980Z,3.98
2018-11-06T07:37:32.075Z,4.61
2018-11-06T07:37:32.189Z,3.47
2018-11-06T07:37:32.236Z,3.47
2018-11-06T07:37:32.334Z,6.15
2018-11-06T07:37:32.380Z,4.35
2018-11-06T07:37:32.475Z,3.73
2018-11-06T07:37:32.566Z,4.43
2018-11-06T07:37:32.710Z,5.8
2018-11-06T07:37:32.788Z,4.84
2018-11-06T07:37:32.866Z,5.16
2018-11-06T07:37:32.890Z,5.04
2018-11-06T07:37:33.019Z,5.04
2018-11-06T07:37:33.065Z,5.67
2018-11-06T07:37:33.152Z,5.42
2018-11-06T07:37:33.186Z,4.57
2018-11-06T07:37:33.251Z,3.88
2018-11-06T07:37:33.344Z,4.38
2018-11-06T07:37:33.407Z,4.47
2018-11-06T07:37:33.470Z,4.64
2018-11-06T07:37:33.565Z,5.48
2018-11-06T07:37:33.655Z,4.68
2018-11-06T07:37:33.764Z,4.68
2018-11-06T07:37:33.871Z,3.58
2018-11-06T07:37:33.957Z,3.7
2018-11-06T07:37:34.005Z,5.05
2018-11-06T07:37:34.082Z,3.15
2018-11-06T07:37:34.155Z,3.54
2018-11-06T07:37:34.240Z,4.25
2018-11-06T07:37:34.312Z,4.71
2018-11-06T07:37:34.325Z,3.84
2018-11-06T07:38:34.537Z,3.42
2018-11-06T07:38:34.636Z,4.5
2018-11-06T07:38:34.665Z,3.81
2018-11-06T07:38:34.753Z,5.84
2018-11-06T07:38:34.835Z,13.1
2018-11-06T07:38:34.896Z,13.89
2018-11-06T07:38:34.957Z,8.96
2018-11-06T07:38:35.032Z,8.05
2018-11-06T07:38:35.113Z,8.09
2018-11-06T07:38:35.171Z,9.26
2018-11-06T07:38:35.241Z,9.26
2018-11-06T07:38:35.306Z,8.25
2018-11-06T07:38:35.416Z,6.89
2018-11-06T07:38:35.469Z,7.17
2018-11-06T07:38:35.556Z,7.66
2018-11-06T07:38:35.635Z,5.47
2018-11-06T07:38:35.663Z,5.94
2018-11-06T07:38:35.721Z,7.57
2018-11-06T07:38:35.781Z,5.82
2018-11-06T07:38:35.832Z,5.55
2018-11-06T07:38:35.923Z,5.55
2018-11-06T07:38:35.967Z,5.5
2018-11-06T07:38:36.073Z,4.04
2018-11-06T07:38:36.131Z,4.26
2018-11-06T07:38:36.257Z,4.64
2018-11-06T07:38:36.304Z,4.79
2018-11-06T07:38:36.389Z,4.27
2018-11-06T07:38:36.465Z,4.83
2018-11-06T07:38:36.538Z,5.21
2018-11-06T07:38:36.613Z,12.42
2018-11-06T07:38:36.685Z,12.42
2018-11-06T07:38:36.782Z,5.23
2018-11-06T07:38:36.800Z,3.57
2018-11-06T07:38:36.911Z,3.91
2018-11-06T07:38:37.024Z,4.29
2018-11-06T07:38:37.090Z,3.24
2018-11-06T07:38:37.137Z,3.27
2018-11-06T07:38:37.215Z,3.59
2018-11-06T07:38:37.276Z,2.85
2018-11-06T07:38:37.338Z,2.85
2018-11-06T07:38:37.408Z,3.83
2018-11-06T07:38:37.463Z,3.85
2018-11-06T07:38:37.547Z,4.19
2018-11-06T07:38:37.592Z,5.69
2018-11-06T07:38:37.683Z,3.85
2018-11-06T07:38:37.747Z,5.05
2018-11-06T07:38:37.851Z,4.08
2018-11-06T07:38:37.913Z,4.22
2018-11-06T07:38:37.958Z,5.69
2018-11-06T07:38:38.073Z,5.69
2018-11-06T07:38:38.111Z,5.67
2018-11-06T07:38:38.164Z,3.86
2018-11-06T07:38:38.237Z,5.7
2018-11-06T07:38:38.325Z,3.89
2018-11-06T07:38:38.377Z,5.19
2018-11-06T07:38:38.455Z,6.36
2018-11-06T07:38:38.507Z,5.94
2018-11-06T07:38:38.622Z,5.86
2018-11-06T07:38:38.750Z,5.75
2018-11-06T07:38:38.810Z,5.75
2018-11-06T07:38:38.863Z,4.4
2018-11-06T07:38:38.950Z,5.26
2018-11-06T07:38:39.007Z,4.86
2018-11-06T07:38:39.052Z,5.11
2018-11-06T07:38:39.105Z,4.22
2018-11-06T07:38:39.173Z,5.1
2018-11-06T07:38:39.257Z,5.88
2018-11-06T07:38:39.333Z,6.16
2018-11-06T07:38:39.396Z,7.08
2018-11-06T07:38:39.468Z,7.08
2018-11-06T07:38:39.552Z,6.92
2018-11-06T07:38:39.620Z,5.14
2018-11-06T07:38:39.702Z,6.68
2018-11-06T07:38:39.791Z,5.8
2018-11-06T07:38:39.837Z,6.3
2018-11-06T07:38:39.903Z,5.35
2018-11-06T07:38:39.977Z,5.36
2018-11-06T07:38:40.067Z,5.91
2018-11-06T07:38:40.115Z,5.52
2018-11-06T07:38:40.188Z,5.52
2018-11-06T07:38:40.286Z,5.35
2018-11-06T07:38:40.380Z,4.59
2018-11-06T07:38:40.426Z,4.72
2018-11-06T07:38:40.528Z,5.58
2018-11-06T07:38:40.614Z,4.83
2018-11-06T07:38:40.672Z,6.35
2018-11-06T07:38:40.753Z,4.35
2018-11-06T07:38:40.795Z,6.42
2018-11-06T07:38:40.870Z,5.49
2018-11-06T07:38:40.923Z,5.49
2018-11-06T07:38:41.017Z,5.68
2018-11-06T07:38:41.086Z,6.7
2018-11-06T07:38:41.174Z,6.87
2018-11-06T07:38:41.243Z,4.91
2018-11-06T07:38:41.306Z,5.41
2018-11-06T07:38:41.368Z,5.77
2018-11-06T07:38:41.461Z,7.49
2018-11-06T07:38:41.544Z,5.99
2018-11-06T07:38:41.598Z,6.62
2018-11-06T07:38:41.652Z,6.62
2018-11-06T07:38:41.732Z,6.26
2018-11-06T07:38:41.820Z,5.8
2018-11-06T07:38:41.852Z,7.08
2018-11-06T07:38:41.947Z,6.04
2018-11-06T07:38:42.032Z,6.4
2018-11-06T07:38:42.147Z,6.18
2018-11-06T07:38:42.188Z,4.28
2018-11-06T07:38:42.260Z,5.36
2018-11-06T07:38:42.302Z,5.36
2018-11-06T07:38:42.376Z,4.56
2018-11-06T07:38:42.463Z,5.8
2018-11-06T07:38:42.523Z,5.94
2018-11-06T07:38:42.566Z,6.22
2018-11-06T07:38:42.640Z,5.41
2018-11-06T07:38:42.715Z,5.15
2018-11-06T07:38:42.825Z,4.98
2018-11-06T07:38:42.911Z,4.99
2018-11-06T07:38:43.016Z,5.94
2018-11-06T07:38:43.117Z,5.94
2018-11-06T07:38:43.259Z,5.55
2018-11-06T07:38:43.334Z,6.41
2018-11-06T07:38:43.427Z,6.03
2018-11-06T07:38:43.545Z,8
2018-11-06T07:38:43.692Z,5.24
2018-11-06T07:38:43.795Z,8.07
2018-11-06T07:38:43.852Z,6.3
2018-11-06T07:38:43.904Z,6.76
2018-11-06T07:38:43.993Z,7.06
2018-11-06T07:38:44.038Z,7.06
2018-11-06T07:38:44.123Z,5.46
2018-11-06T07:38:44.201Z,7.84
2018-11-06T07:38:44.264Z,6.72
2018-11-06T07:38:44.347Z,5.39
2018-11-06T07:38:44.409Z,7.83
2018-11-06T07:38:44.447Z,6.46
2018-11-06T07:38:44.527Z,7.21
2018-11-06T07:38:44.640Z,6.95
2018-11-06T07:38:44.770Z,5.3
2018-11-06T07:38:44.860Z,5.3
2018-11-06T07:38:44.948Z,6.69
2018-11-06T07:38:45.052Z,5.82
2018-11-06T07:38:45.157Z,6.22
2018-11-06T07:38:45.282Z,4.26
2018-11-06T07:38:45.452Z,5.76
2018-11-06T07:38:45.550Z,6.21
2018-11-06T07:38:45.660Z,5.51
2018-11-06T07:38:45.737Z,5.03
2018-11-06T07:38:45.825Z,6.89
2018-11-06T07:38:45.881Z,6.89
2018-11-06T07:38:45.960Z,6.09
2018-11-06T07:38:46.028Z,5.46
2018-11-06T07:38:46.104Z,4.25
2018-11-06T07:38:46.169Z,5.17
2018-11-06T07:38:46.230Z,4.81
2018-11-06T07:38:46.323Z,5.84
2018-11-06T07:38:46.459Z,4.82
2018-11-06T07:38:46.516Z,6.22
2018-11-06T07:38:46.591Z,4.37
2018-11-06T07:38:46.691Z,4.37
2018-11-06T07:38:46.721Z,4.63
2018-11-06T07:38:46.789Z,5.03
2018-11-06T07:38:46.873Z,5.13
2018-11-06T07:38:46.981Z,3.84
2018-11-06T07:38:47.021Z,4.81
2018-11-06T07:38:47.077Z,3.96
2018-11-06T07:38:47.172Z,5.03
2018-11-06T07:38:47.241Z,5.05
2018-11-06T07:38:47.311Z,5.76
2018-11-06T07:38:47.382Z,5.76
2018-11-06T07:38:47.490Z,5.69
2018-11-06T07:38:47.559Z,4.89
2018-11-06T07:38:47.594Z,4.18
2018-11-06T07:38:47.654Z,6.43
2018-11-06T07:38:47.736Z,6.96
2018-11-06T07:38:47.802Z,6.63
2018-11-06T07:38:47.871Z,5.55
2018-11-06T07:38:47.916Z,4.37
2018-11-06T07:38:48.039Z,4.37
2018-11-06T07:38:48.148Z,4.9
2018-11-06T07:38:48.221Z,5.71
2018-11-06T07:38:48.299Z,4.26
2018-11-06T07:38:48.380Z,6.01
2018-11-06T07:38:48.442Z,4.9
2018-11-06T07:38:48.518Z,5.65
2018-11-06T07:38:48.593Z,5.8
2018-11-06T07:38:48.662Z,5.06
2018-11-06T07:38:48.717Z,4.81
2018-11-06T07:38:48.798Z,4.81
2018-11-06T07:38:48.857Z,4.94
2018-11-06T07:38:48.957Z,5.17
2018-11-06T07:38:49.018Z,5.7
2018-11-06T07:38:49.082Z,6.22
2018-11-06T07:38:49.160Z,6.99
2018-11-06T07:38:49.245Z,5
2018-11-06T07:38:49.312Z,5.9
2018-11-06T07:38:49.382Z,5.56
2018-11-06T07:38:49.456Z,6.3
2018-11-06T07:38:49.527Z,6.3
2018-11-06T07:38:49.587Z,6.49
2018-11-06T07:38:49.680Z,6.92
2018-11-06T07:38:49.746Z,6.18
2018-11-06T07:38:49.826Z,6.11
2018-11-06T07:38:49.871Z,5.47
2018-11-06T07:38:49.955Z,5.77
2018-11-06T07:38:50.033Z,7.31
2018-11-06T07:38:50.095Z,4.03
2018-11-06T07:38:50.172Z,5
2018-11-06T07:38:50.225Z,5
2018-11-06T07:38:50.302Z,6.11
2018-11-06T07:38:50.359Z,7.64
2018-11-06T07:38:50.439Z,6.91
2018-11-06T07:38:50.492Z,6.91
2018-11-06T07:38:50.594Z,8.65
2018-11-06T07:38:50.705Z,7.76
2018-11-06T07:38:50.769Z,8.71
2018-11-06T07:38:50.868Z,6.51
2018-11-06T07:38:50.879Z,6.91
2018-11-06T07:38:50.945Z,6.91
2018-11-06T07:38:51.023Z,5.72
2018-11-06T07:38:51.067Z,6.82
2018-11-06T07:38:51.159Z,5.91
2018-11-06T07:38:51.219Z,7.14
2018-11-06T07:38:51.286Z,5.9
2018-11-06T07:38:51.394Z,7.98
2018-11-06T07:38:51.428Z,6.4
2018-11-06T07:38:51.650Z,7.27
2018-11-06T07:38:51.795Z,6.31
2018-11-06T07:38:51.877Z,6.31
2018-11-06T07:38:52.008Z,9.42
2018-11-06T07:38:52.078Z,7.15
2018-11-06T07:38:52.155Z,6.61
2018-11-06T07:38:52.213Z,9.22
2018-11-06T07:38:52.283Z,6.76
2018-11-06T07:38:52.336Z,8.64
2018-11-06T07:38:52.404Z,8.46
2018-11-06T07:38:52.458Z,7.57
2018-11-06T07:38:52.539Z,9.61
2018-11-06T07:38:52.580Z,9.61
2018-11-06T07:38:52.664Z,8.39
2018-11-06T07:38:52.729Z,9.2
2018-11-06T07:38:52.815Z,11.84
2018-11-06T07:38:52.920Z,8.9
2018-11-06T07:38:52.962Z,10.87
2018-11-06T07:38:53.021Z,10.04
2018-11-06T07:38:53.113Z,7.89
2018-11-06T07:38:53.183Z,8.84
2018-11-06T07:38:53.260Z,8.84
2018-11-06T07:38:53.376Z,8.74
2018-11-06T07:38:53.382Z,9.51
2018-11-06T07:38:53.473Z,10.8
2018-11-06T07:38:53.524Z,9.51
2018-11-06T07:38:53.624Z,11.49
2018-11-06T07:38:53.693Z,12.39
2018-11-06T07:38:53.735Z,10.27
2018-11-06T07:38:53.839Z,12.4
2018-11-06T07:38:53.878Z,12.08
2018-11-06T07:38:53.977Z,12.08
2018-11-06T07:38:54.023Z,16.34
2018-11-06T07:38:54.093Z,13.81
2018-11-06T07:38:54.207Z,14.68
2018-11-06T07:38:54.247Z,9.03
2018-11-06T07:38:54.297Z,10.35
2018-11-06T07:38:54.440Z,12.09
2018-11-06T07:38:54.517Z,13.02
2018-11-06T07:38:54.595Z,12.88
2018-11-06T07:38:54.659Z,12.11
2018-11-06T07:38:54.704Z,12.11
2018-11-06T07:38:54.810Z,11.35
2018-11-06T07:38:54.869Z,12
2018-11-06T07:38:54.955Z,7.9
2018-11-06T07:38:54.995Z,10.84
2018-11-06T07:38:55.085Z,10.33
2018-11-06T07:38:55.130Z,12.3
2018-11-06T07:38:55.235Z,10.88
2018-11-06T07:38:55.293Z,10.82
2018-11-06T07:38:55.416Z,9.35
2018-11-06T07:38:55.500Z,9.35
2018-11-06T07:38:55.577Z,10.8
2018-11-06T07:38:55.630Z,9.83
2018-11-06T07:38:55.688Z,12.27
2018-11-06T07:38:55.766Z,6.02
2018-11-06T07:38:55.865Z,9.23
2018-11-06T07:38:55.887Z,9.28
2018-11-06T07:38:55.954Z,10.64
2018-11-06T07:38:56.018Z,8.43
2018-11-06T07:38:56.075Z,8.35
2018-11-06T07:38:56.180Z,8.35
2018-11-06T07:38:56.235Z,9.24
2018-11-06T07:38:56.327Z,7.75
2018-11-06T07:38:56.392Z,7.95
2018-11-06T07:38:56.457Z,8.73
2018-11-06T07:38:56.531Z,10.36
2018-11-06T07:38:56.587Z,7.91
2018-11-06T07:38:56.645Z,9.3
2018-11-06T07:38:56.748Z,6.8
2018-11-06T07:38:56.789Z,5.69
2018-11-06T07:38:56.842Z,5.69
2018-11-06T07:38:56.961Z,7.56
2018-11-06T07:38:56.991Z,10.5
2018-11-06T07:38:57.146Z,8.82
2018-11-06T07:38:57.208Z,8.81
2018-11-06T07:38:57.269Z,7.17
2018-11-06T07:38:57.347Z,6.81
2018-11-06T07:38:57.416Z,7.27
2018-11-06T07:38:57.473Z,7.76
2018-11-06T07:38:57.538Z,8.98
2018-11-06T07:38:57.632Z,8.98
2018-11-06T07:38:57.707Z,9.18
2018-11-06T07:38:57.780Z,8.21
2018-11-06T07:38:57.855Z,7.94
2018-11-06T07:38:57.934Z,7.94
2018-11-06T07:38:58.025Z,8.7
2018-11-06T07:38:58.125Z,8.49
2018-11-06T07:38:58.281Z,7.1
2018-11-06T07:38:58.304Z,6.63
2018-11-06T07:38:58.377Z,6.63
2018-11-06T07:38:58.431Z,7.11
2018-11-06T07:38:58.523Z,9.21
2018-11-06T07:38:58.581Z,6.96
2018-11-06T07:38:58.630Z,7
2018-11-06T07:38:58.719Z,7.12
2018-11-06T07:38:58.773Z,9.37
2018-11-06T07:38:58.857Z,7.19
2018-11-06T07:38:58.955Z,9
2018-11-06T07:38:59.071Z,8.46
2018-11-06T07:38:59.134Z,8.46
2018-11-06T07:38:59.201Z,8.96
2018-11-06T07:38:59.294Z,8.44
2018-11-06T07:38:59.319Z,8.6
2018-11-06T07:38:59.399Z,6.76
2018-11-06T07:38:59.488Z,9.21
2018-11-06T07:38:59.537Z,8.68
2018-11-06T07:38:59.599Z,11.14
2018-11-06T07:38:59.702Z,10.71
2018-11-06T07:38:59.737Z,9.99
2018-11-06T07:38:59.855Z,9.99
2018-11-06T07:38:59.904Z,7.83
2018-11-06T07:39:00.043Z,10.32
2018-11-06T07:39:00.079Z,9.37
2018-11-06T07:39:00.173Z,9.83
2018-11-06T07:39:00.208Z,11.22
2018-11-06T07:39:00.266Z,10.89
2018-11-06T07:39:00.343Z,6.33
2018-11-06T07:39:00.436Z,8.35
2018-11-06T07:39:00.484Z,6.96
2018-11-06T07:39:00.545Z,6.96
2018-11-06T07:39:00.619Z,10.43
2018-11-06T07:39:00.722Z,10.68
2018-11-06T07:39:00.813Z,8.07
2018-11-06T07:39:00.858Z,8.58
2018-11-06T07:39:00.932Z,10.03
2018-11-06T07:39:00.984Z,6.9
2018-11-06T07:39:01.092Z,8.76
2018-11-06T07:39:01.175Z,7.6
2018-11-06T07:39:01.242Z,6.87
2018-11-06T07:39:01.309Z,6.87
2018-11-06T07:39:01.374Z,6.46
2018-11-06T07:39:01.424Z,7.29
2018-11-06T07:39:01.545Z,5.69
2018-11-06T07:39:01.622Z,5.63
2018-11-06T07:39:01.679Z,7.22
2018-11-06T07:39:01.770Z,7.17
2018-11-06T07:39:01.834Z,6.61
2018-11-06T07:39:01.950Z,7.47
2018-11-06T07:39:01.989Z,6.88
2018-11-06T07:39:02.083Z,6.88
2018-11-06T07:39:02.124Z,6.51
2018-11-06T07:39:02.215Z,5.89
2018-11-06T07:39:02.297Z,5.07
2018-11-06T07:39:02.399Z,5.89
2018-11-06T07:39:02.435Z,5.44
2018-11-06T07:39:02.535Z,4.14
2018-11-06T07:39:02.600Z,3.91
2018-11-06T07:39:02.680Z,3.32
2018-11-06T07:39:02.723Z,3.32
2018-11-06T07:39:02.798Z,5.1
2018-11-06T07:39:02.862Z,4.86
2018-11-06T07:39:02.930Z,3.93
2018-11-06T07:39:02.993Z,4.35
2018-11-06T07:39:03.102Z,5.13
2018-11-06T07:39:03.163Z,4.57
2018-11-06T07:39:03.237Z,3.27
2018-11-06T07:39:03.305Z,4.06
2018-11-06T07:39:03.364Z,5.27
2018-11-06T07:39:03.441Z,5.27
2018-11-06T07:39:03.509Z,4.01
2018-11-06T07:39:03.580Z,5.02
2018-11-06T07:39:03.642Z,4.98
2018-11-06T07:39:03.724Z,5.24
2018-11-06T07:39:03.801Z,3.3
2018-11-06T07:39:03.853Z,3.33
2018-11-06T07:39:03.963Z,3.32
2018-11-06T07:39:04.076Z,3.71
2018-11-06T07:39:04.187Z,4.27
2018-11-06T07:39:04.322Z,4.27
2018-11-06T07:39:04.348Z,4.46
2018-11-06T07:39:04.396Z,4.95
2018-11-06T07:39:04.473Z,4.72
2018-11-06T07:39:04.539Z,3.42
2018-11-06T07:39:04.629Z,3.49
2018-11-06T07:39:04.712Z,4.78
2018-11-06T07:39:04.773Z,4.85
2018-11-06T07:39:04.876Z,5.55
2018-11-06T07:39:04.914Z,5.16
2018-11-06T07:39:05.035Z,5.16
2018-11-06T07:39:05.075Z,6.37
2018-11-06T07:39:05.168Z,6.3
2018-11-06T07:39:05.249Z,4.37
2018-11-06T07:39:05.348Z,5.41
2018-11-06T07:39:05.418Z,3.97
2018-11-06T07:39:05.482Z,3.26
2018-11-06T07:39:05.548Z,4.17
2018-11-06T07:39:05.625Z,3.32
2018-11-06T07:39:05.693Z,2.59
2018-11-06T07:39:05.766Z,2.59
2018-11-06T07:39:05.853Z,4.93
2018-11-06T07:39:05.962Z,3.74
2018-11-06T07:39:06.016Z,6.17
2018-11-06T07:39:06.149Z,5.08
2018-11-06T07:39:06.268Z,5.04
2018-11-06T07:39:06.283Z,3.83
2018-11-06T07:39:06.420Z,2.82
2018-11-06T07:39:06.506Z,3.22
2018-11-06T07:39:06.579Z,3.22
2018-11-06T07:39:06.662Z,3
2018-11-06T07:39:06.784Z,3.42
2018-11-06T07:39:06.852Z,3.47
2018-11-06T07:39:06.902Z,5.72
2018-11-06T07:39:06.957Z,4.47
2018-11-06T07:39:07.022Z,3.48
2018-11-06T07:39:07.085Z,3.73
2018-11-06T07:39:07.165Z,2.6
2018-11-06T07:39:07.223Z,3.57
2018-11-06T07:39:07.322Z,3.57
2018-11-06T07:39:07.380Z,4.26
2018-11-06T07:39:07.453Z,3.93
2018-11-06T07:39:07.577Z,2.64
2018-11-06T07:39:07.647Z,2.96
2018-11-06T07:39:07.693Z,3.8
2018-11-06T07:39:07.772Z,2.53
2018-11-06T07:39:07.848Z,3.13
2018-11-06T07:39:07.924Z,3.56
2018-11-06T07:39:08.011Z,3.77
2018-11-06T07:39:08.060Z,3.77
2018-11-06T07:39:08.133Z,2.98
2018-11-06T07:39:08.225Z,2.62
2018-11-06T07:39:08.312Z,3.07
2018-11-06T07:39:08.374Z,3.47
2018-11-06T07:39:08.458Z,3.57
2018-11-06T07:39:08.533Z,3.8
2018-11-06T07:39:08.594Z,2.83
2018-11-06T07:39:08.658Z,3.59
2018-11-06T07:39:08.716Z,3.35
2018-11-06T07:39:08.788Z,3.35
2018-11-06T07:39:08.851Z,3.24
2018-11-06T07:39:08.938Z,3.69
2018-11-06T07:39:09.008Z,3.98
2018-11-06T07:39:09.069Z,3.27
2018-11-06T07:39:09.193Z,6.01
2018-11-06T07:39:09.230Z,5.28
2018-11-06T07:39:09.309Z,4.27
2018-11-06T07:39:09.349Z,3.87
2018-11-06T07:39:09.430Z,5.29
2018-11-06T07:39:09.498Z,5.29
2018-11-06T07:39:09.585Z,4.97
2018-11-06T07:39:09.651Z,4.83
2018-11-06T07:39:09.711Z,6.38
2018-11-06T07:39:09.781Z,6.62
2018-11-06T07:39:09.860Z,8.3
2018-11-06T07:39:09.945Z,9.11
2018-11-06T07:39:10.041Z,12.49
2018-11-06T07:39:10.154Z,5.34
2018-11-06T07:39:10.295Z,5.34
2018-11-06T07:39:10.344Z,5.1
2018-11-06T07:39:10.451Z,9.44
2018-11-06T07:39:10.503Z,9.16
2018-11-06T07:39:10.565Z,8.19
2018-11-06T07:39:10.652Z,9.05
2018-11-06T07:39:10.698Z,5.84
2018-11-06T07:39:10.760Z,6.79
2018-11-06T07:39:10.841Z,5.49
2018-11-06T07:39:10.912Z,5.19
2018-11-06T07:39:10.977Z,5.19
2018-11-06T07:39:11.060Z,4.31
2018-11-06T07:39:11.135Z,5.36
2018-11-06T07:39:11.236Z,4.8
2018-11-06T07:39:11.315Z,6.17
2018-11-06T07:39:11.390Z,5.25
2018-11-06T07:39:11.461Z,4.66
2018-11-06T07:39:11.519Z,5.55
2018-11-06T07:39:11.596Z,8.06
2018-11-06T07:39:11.684Z,7.67
2018-11-06T07:39:11.736Z,7.67
2018-11-06T07:39:11.827Z,7.46
2018-11-06T07:39:11.917Z,6.95
2018-11-06T07:39:11.975Z,6.83
2018-11-06T07:39:12.086Z,6.29
2018-11-06T07:39:12.158Z,6.95
2018-11-06T07:39:12.258Z,5.48
2018-11-06T07:39:12.318Z,5.36
2018-11-06T07:39:12.350Z,5.82
2018-11-06T07:39:12.437Z,5.51
2018-11-06T07:39:12.487Z,5.51
2018-11-06T07:39:12.555Z,5.22
2018-11-06T07:39:12.610Z,7.25
2018-11-06T07:39:12.675Z,7.02
2018-11-06T07:39:12.732Z,9.74
2018-11-06T07:39:12.808Z,8.42
2018-11-06T07:39:12.922Z,7.2
2018-11-06T07:39:12.987Z,5.41
2018-11-06T07:39:13.034Z,8.34
2018-11-06T07:39:13.147Z,9.7
2018-11-06T07:39:13.251Z,9.7
2018-11-06T07:39:13.286Z,10.13
2018-11-06T07:39:13.368Z,10.06
2018-11-06T07:39:13.440Z,9.03
2018-11-06T07:39:13.489Z,11.19
2018-11-06T07:39:13.551Z,11.05
2018-11-06T07:39:13.629Z,12.7
2018-11-06T07:39:13.772Z,11.31
2018-11-06T07:39:13.838Z,11.02
2018-11-06T07:39:13.845Z,11.02
2018-11-06T07:39:13.961Z,11.94
2018-11-06T07:39:14.008Z,9.67
2018-11-06T07:39:14.078Z,12.18
2018-11-06T07:39:14.130Z,8.86
2018-11-06T07:39:14.197Z,12.19
2018-11-06T07:39:14.259Z,14.3
2018-11-06T07:39:14.338Z,15.92
2018-11-06T07:39:14.385Z,9.73
2018-11-06T07:39:14.459Z,12.07
2018-11-06T07:39:14.584Z,12.07
2018-11-06T07:39:14.633Z,13.95
2018-11-06T07:39:14.730Z,15.46
2018-11-06T07:39:14.797Z,12.57
2018-11-06T07:39:14.857Z,13.99
2018-11-06T07:39:14.948Z,12.37
2018-11-06T07:39:15.020Z,14.77
2018-11-06T07:39:15.067Z,16
2018-11-06T07:39:15.125Z,16.13
2018-11-06T07:39:15.224Z,14.97
2018-11-06T07:39:15.273Z,14.97
2018-11-06T07:39:15.403Z,16.49
2018-11-06T07:39:15.461Z,12.66
2018-11-06T07:39:15.584Z,13.46
2018-11-06T07:39:15.621Z,12.37
2018-11-06T07:39:15.689Z,12.29
2018-11-06T07:39:15.753Z,12.19
2018-11-06T07:39:15.803Z,14.83
2018-11-06T07:39:15.881Z,14.58
2018-11-06T07:39:15.948Z,14.53
2018-11-06T07:39:16.019Z,14.53
2018-11-06T07:39:16.096Z,15.87
2018-11-06T07:39:16.176Z,14.59
2018-11-06T07:39:16.253Z,12.86
2018-11-06T07:39:16.341Z,12.06
2018-11-06T07:39:16.385Z,10.49
2018-11-06T07:39:16.442Z,15.4
2018-11-06T07:39:16.526Z,10.52
2018-11-06T07:39:16.555Z,11.8
2018-11-06T07:39:16.653Z,10.52
2018-11-06T07:39:16.733Z,10.52
2018-11-06T07:39:16.781Z,10.58
2018-11-06T07:39:16.903Z,8.2
2018-11-06T07:39:17.002Z,10
2018-11-06T07:39:17.128Z,11.05
2018-11-06T07:39:17.255Z,9.19
2018-11-06T07:39:17.336Z,9.91
2018-11-06T07:39:17.438Z,9.83
2018-11-06T07:39:17.538Z,9.18
2018-11-06T07:39:17.609Z,12.05
2018-11-06T07:39:17.676Z,12.05
2018-11-06T07:39:17.744Z,7.97
2018-11-06T07:39:17.797Z,10.71
2018-11-06T07:39:17.861Z,8.58
2018-11-06T07:39:17.960Z,8.03
2018-11-06T07:39:18.028Z,11.3
2018-11-06T07:39:18.098Z,9.37
2018-11-06T07:39:18.140Z,6.74
2018-11-06T07:39:18.217Z,10.53
2018-11-06T07:39:18.355Z,10.53
2018-11-06T07:39:18.394Z,8
2018-11-06T07:39:18.442Z,8.28
2018-11-06T07:39:18.542Z,9.58
2018-11-06T07:39:18.609Z,9.73
2018-11-06T07:39:18.672Z,9.09
2018-11-06T07:39:18.726Z,7.87
2018-11-06T07:39:18.781Z,9.81
2018-11-06T07:39:18.869Z,8.98
2018-11-06T07:39:18.932Z,11.47
2018-11-06T07:39:18.995Z,11.47
2018-11-06T07:39:19.123Z,9.87
2018-11-06T07:39:19.189Z,9.01
2018-11-06T07:39:19.229Z,11.02
2018-11-06T07:39:19.327Z,9.9
2018-11-06T07:39:19.381Z,9.63
2018-11-06T07:39:19.458Z,9.42
2018-11-06T07:39:19.533Z,10.19
2018-11-06T07:39:19.606Z,8.91
2018-11-06T07:39:19.680Z,10.51
2018-11-06T07:39:19.740Z,10.51
2018-11-06T07:39:19.808Z,10.15
2018-11-06T07:39:19.889Z,12
2018-11-06T07:39:19.964Z,11.51
2018-11-06T07:39:20.022Z,12.32
2018-11-06T07:39:20.088Z,13.09
2018-11-06T07:39:20.172Z,14.7
2018-11-06T07:39:20.247Z,10.04
2018-11-06T07:39:20.309Z,11.63
2018-11-06T07:39:20.418Z,11.88
2018-11-06T07:39:20.509Z,11.88
2018-11-06T07:39:20.541Z,13.46
2018-11-06T07:39:20.581Z,14.36
2018-11-06T07:39:20.673Z,11.84
2018-11-06T07:39:20.759Z,12.36
2018-11-06T07:39:20.900Z,12.5
2018-11-06T07:39:20.972Z,10
2018-11-06T07:39:21.083Z,10.55
2018-11-06T07:39:21.188Z,9.28
2018-11-06T07:39:21.303Z,11.32
2018-11-06T07:39:21.391Z,11.32
2018-11-06T07:39:21.709Z,11.74
2018-11-06T07:39:21.789Z,13.87
2018-11-06T07:39:21.854Z,11.12
2018-11-06T07:39:21.933Z,15.29
2018-11-06T07:39:22.022Z,12.51
2018-11-06T07:39:22.086Z,16.42
2018-11-06T07:39:22.123Z,13.8
2018-11-06T07:39:22.193Z,13.79
2018-11-06T07:39:22.299Z,13.24
2018-11-06T07:39:22.390Z,13.24
2018-11-06T07:39:22.442Z,14.77
2018-11-06T07:39:22.502Z,12.57
2018-11-06T07:39:22.573Z,12.37
2018-11-06T07:39:22.635Z,12.46
2018-11-06T07:39:22.695Z,11.95
2018-11-06T07:39:22.775Z,10.27
2018-11-06T07:39:22.839Z,10.28
2018-11-06T07:39:22.906Z,14.07
2018-11-06T07:39:22.957Z,14.07
2018-11-06T07:39:23.041Z,11.97
2018-11-06T07:39:23.137Z,10.72
2018-11-06T07:39:23.279Z,11.31
2018-11-06T07:39:23.319Z,14.64
2018-11-06T07:39:23.374Z,13.19
2018-11-06T07:39:23.430Z,9.05
2018-11-06T07:39:23.552Z,12.5
2018-11-06T07:39:23.579Z,10.25
2018-11-06T07:39:23.654Z,12.2
2018-11-06T07:39:23.740Z,12.2
2018-11-06T07:39:23.783Z,11.24
2018-11-06T07:39:23.863Z,12.05
2018-11-06T07:39:23.914Z,11.57
2018-11-06T07:39:23.980Z,12.16
2018-11-06T07:39:24.079Z,11.56
2018-11-06T07:39:24.159Z,12.41
2018-11-06T07:39:24.256Z,12.4
2018-11-06T07:39:24.314Z,13.26
2018-11-06T07:39:24.413Z,9.41
2018-11-06T07:39:24.486Z,9.41
2018-11-06T07:39:24.541Z,12.99
2018-11-06T07:39:24.613Z,12.83
2018-11-06T07:39:24.696Z,12.76
2018-11-06T07:39:24.783Z,13.02
2018-11-06T07:39:24.832Z,13.61
2018-11-06T07:39:24.917Z,9.59
2018-11-06T07:39:24.981Z,11.74
2018-11-06T07:39:25.065Z,11.02
2018-11-06T07:39:25.126Z,10.84
2018-11-06T07:39:25.175Z,10.84
2018-11-06T07:39:25.259Z,15.39
2018-11-06T07:39:25.331Z,16.58
2018-11-06T07:39:25.398Z,11.77
2018-11-06T07:39:25.443Z,11.57
2018-11-06T07:39:25.522Z,10.98
2018-11-06T07:39:25.585Z,12.72
2018-11-06T07:39:25.704Z,12.48
2018-11-06T07:39:25.781Z,13.03
2018-11-06T07:39:25.863Z,8.64
2018-11-06T07:39:25.931Z,8.64
2018-11-06T07:39:25.991Z,11.01
2018-11-06T07:39:26.061Z,11.19
2018-11-06T07:39:26.155Z,12.66
2018-11-06T07:39:26.215Z,11.78
2018-11-06T07:39:26.271Z,10.94
2018-11-06T07:39:26.334Z,10.86
2018-11-06T07:39:26.398Z,10.7
2018-11-06T07:39:26.525Z,9.95
2018-11-06T07:39:26.598Z,11.87
2018-11-06T07:39:26.647Z,11.87
2018-11-06T07:39:26.704Z,11.31
2018-11-06T07:39:26.751Z,16.32
2018-11-06T07:39:26.845Z,11.1
2018-11-06T07:39:26.888Z,11.73
2018-11-06T07:39:26.937Z,10.44
2018-11-06T07:39:27.013Z,9.57
2018-11-06T07:39:27.088Z,10.5
2018-11-06T07:39:27.168Z,12.12
2018-11-06T07:39:27.230Z,12.12
2018-11-06T07:39:27.337Z,11.44